createdAt,value
2022-09-26T00:01:54.214Z,100487.91
2022-09-26T00:04:35.285Z,100472.69
2022-09-26T00:07:02.151Z,100423.03
2022-09-26T00:09:29.223Z,100475.72
2022-09-26T00:11:56.266Z,100415.72
2022-09-26T00:14:27.059Z,100439.97
2022-09-26T00:16:54.236Z,100472.16
2022-09-26T00:19:21.996Z,100371.06
2022-09-26T00:21:49.025Z,100471.38
2022-09-26T00:24:36.891Z,100459.06
2022-09-26T00:27:17.574Z,100302.56
2022-09-26T00:29:44.566Z,100462.75
2022-09-26T00:32:11.513Z,100458.19
2022-09-26T00:34:39.306Z,100458.28
2022-09-26T00:37:06.210Z,100426.19
2022-09-26T00:39:33.174Z,100448.16
2022-09-26T00:42:00.846Z,100455.25
2022-09-26T00:44:56.955Z,100453.53
2022-09-26T00:47:38.961Z,100453.53
2022-09-26T00:50:17.261Z,100460.75
2022-09-26T00:53:12.518Z,100395.16
2022-09-26T00:55:46.667Z,100451.75
2022-09-26T00:58:17.958Z,100412.75
2022-09-26T01:01:05.020Z,100382.53
2022-09-26T01:04:05.938Z,100444.41
2022-09-26T01:07:09.920Z,100405.50
2022-09-26T01:09:51.974Z,100418.84
2022-09-26T01:12:21.160Z,100365.84
2022-09-26T01:14:51.900Z,100419.06
2022-09-26T01:17:24.716Z,100355.53
2022-09-26T01:20:23.679Z,100423.78
2022-09-26T01:23:29.984Z,100418.25
2022-09-26T01:26:44.675Z,100410.63
2022-09-26T01:29:22.513Z,100348.97
2022-09-26T01:32:43.731Z,100392.91
2022-09-26T01:35:13.657Z,100390.41
2022-09-26T01:37:59.711Z,100392.16
2022-09-26T01:41:09.298Z,100334.56
2022-09-26T01:44:10.702Z,100359.31
2022-09-26T01:46:53.323Z,100354.25
2022-09-26T01:49:36.180Z,100377.31
2022-09-26T01:52:15.868Z,100292.38
2022-09-26T01:54:55.736Z,100355.16
2022-09-26T01:57:47.990Z,100387.16
2022-09-26T02:00:43.008Z,100374.13
2022-09-26T02:03:44.983Z,100372.75
2022-09-26T02:06:37.286Z,100368.88
2022-09-26T02:09:10.619Z,100340.44
2022-09-26T02:11:41.694Z,100361.59
2022-09-26T02:14:27.894Z,100367.09
2022-09-26T02:17:01.648Z,100360.25
2022-09-26T02:19:33.106Z,100349.91
2022-09-26T02:22:19.958Z,100337.63
2022-09-26T02:25:23.039Z,100311.34
2022-09-26T02:28:21.696Z,100314.78
2022-09-26T02:30:50.928Z,100345.31
2022-09-26T02:33:18.435Z,100210.00
2022-09-26T02:35:54.278Z,100333.88
2022-09-26T02:38:23.747Z,100343.50
2022-09-26T02:41:11.874Z,100340.94
2022-09-26T02:44:06.921Z,100343.50
2022-09-26T02:46:58.437Z,100346.34
2022-09-26T02:49:46.175Z,100305.38
2022-09-26T02:52:44.076Z,100299.00
2022-09-26T02:55:32.608Z,100325.56
2022-09-26T02:58:18.308Z,100348.78
2022-09-26T03:01:17.042Z,100352.25
2022-09-26T03:04:28.035Z,100347.16
2022-09-26T03:07:14.827Z,100348.72
2022-09-26T03:09:43.672Z,100352.56
2022-09-26T03:12:12.562Z,100328.72
2022-09-26T03:14:42.889Z,100226.38
2022-09-26T03:17:10.333Z,100343.63
2022-09-26T03:19:47.112Z,100347.56
2022-09-26T03:22:16.145Z,100313.09
2022-09-26T03:25:03.031Z,100276.03
2022-09-26T03:28:08.996Z,100320.44
2022-09-26T03:30:51.263Z,100292.13
2022-09-26T03:33:25.444Z,100313.94
2022-09-26T03:35:53.712Z,100270.50
2022-09-26T03:38:21.726Z,100281.81
2022-09-26T03:40:58.821Z,100341.16
2022-09-26T03:43:46.054Z,100276.44
2022-09-26T03:46:15.939Z,100291.88
2022-09-26T03:48:43.454Z,100269.75
2022-09-26T03:51:13.433Z,100296.22
2022-09-26T03:53:42.841Z,100327.78
2022-09-26T03:56:34.040Z,100313.41
2022-09-26T03:59:14.968Z,100273.66
2022-09-26T04:02:02.031Z,100322.25
2022-09-26T04:04:46.601Z,100319.66
2022-09-26T04:07:15.351Z,100231.19
2022-09-26T04:09:42.387Z,100305.31
2022-09-26T04:12:09.383Z,100330.19
2022-09-26T04:14:40.378Z,100265.53
2022-09-26T04:17:08.009Z,100300.97
2022-09-26T04:19:40.388Z,100309.50
2022-09-26T04:22:08.308Z,100330.56
2022-09-26T04:24:35.989Z,100336.50
2022-09-26T04:27:23.035Z,100311.00
2022-09-26T04:30:17.626Z,100274.16
2022-09-26T04:33:03.914Z,100187.84
2022-09-26T04:35:33.899Z,100299.09
2022-09-26T04:38:01.159Z,100328.50
2022-09-26T04:40:28.808Z,100307.50
2022-09-26T04:43:06.105Z,100241.25
2022-09-26T04:45:33.064Z,100297.56
2022-09-26T04:48:02.779Z,100306.66
2022-09-26T04:50:44.753Z,100280.94
2022-09-26T04:53:11.904Z,100321.34
2022-09-26T04:56:00.842Z,100323.72
2022-09-26T04:58:51.051Z,100263.56
2022-09-26T05:01:54.183Z,100231.22
2022-09-26T05:05:06.072Z,100317.69
2022-09-26T05:07:46.875Z,100217.88
2022-09-26T05:10:14.333Z,100229.81
2022-09-26T05:12:51.058Z,100261.31
2022-09-26T05:15:38.062Z,100272.44
2022-09-26T05:18:19.231Z,100320.66
2022-09-26T05:20:48.345Z,100241.09
2022-09-26T05:23:40.862Z,100326.91
2022-09-26T05:26:28.286Z,100329.38
2022-09-26T05:28:56.475Z,100323.50
2022-09-26T05:31:29.407Z,100279.13
2022-09-26T05:33:59.184Z,100239.53
2022-09-26T05:36:27.803Z,100256.28
2022-09-26T05:38:54.877Z,100317.47
2022-09-26T05:41:22.953Z,100312.28
2022-09-26T05:43:51.005Z,100227.31
2022-09-26T05:46:17.860Z,100248.97
2022-09-26T05:49:10.061Z,100247.22
2022-09-26T05:52:11.375Z,100302.56
2022-09-26T05:55:12.048Z,100270.41
2022-09-26T05:57:58.632Z,100312.19
2022-09-26T06:00:57.112Z,100277.06
2022-09-26T06:04:01.101Z,100311.50
2022-09-26T06:07:03.919Z,100301.06
2022-09-26T06:09:31.761Z,100310.00
2022-09-26T06:12:11.832Z,100325.56
2022-09-26T06:14:38.887Z,100324.75
2022-09-26T06:17:05.899Z,100279.19
2022-09-26T06:19:32.967Z,100302.25
2022-09-26T06:22:00.146Z,100325.31
2022-09-26T06:24:28.858Z,100334.03
2022-09-26T06:26:59.324Z,100317.78
2022-09-26T06:29:26.247Z,100307.25
2022-09-26T06:31:53.173Z,100301.53
2022-09-26T06:34:45.881Z,100309.69
2022-09-26T06:37:31.301Z,100285.66
2022-09-26T06:40:00.864Z,100349.75
2022-09-26T06:42:27.795Z,100308.69
2022-09-26T06:45:13.994Z,100340.88
2022-09-26T06:48:03.593Z,100355.25
2022-09-26T06:51:10.147Z,100303.34
2022-09-26T06:54:11.186Z,100225.75
2022-09-26T06:56:51.813Z,100306.53
2022-09-26T06:59:18.896Z,100335.66
2022-09-26T07:02:13.206Z,100297.72
2022-09-26T07:05:21.377Z,100287.72
2022-09-26T07:07:53.484Z,100302.47
2022-09-26T07:10:30.568Z,100276.06
2022-09-26T07:13:06.812Z,100334.41
2022-09-26T07:15:54.213Z,100310.94
2022-09-26T07:18:52.801Z,100270.09
2022-09-26T07:21:23.967Z,100231.75
2022-09-26T07:24:34.127Z,100330.38
2022-09-26T07:27:14.660Z,100267.63
2022-09-26T07:29:42.192Z,100335.38
2022-09-26T07:32:09.171Z,100225.69
2022-09-26T07:34:45.241Z,100164.41
2022-09-26T07:37:15.146Z,100256.78
2022-09-26T07:39:42.389Z,100264.38
2022-09-26T07:42:10.083Z,100249.81
2022-09-26T07:47:42.564Z,100254.81
2022-09-26T07:50:49.152Z,100257.97
2022-09-26T07:53:41.241Z,100270.72
2022-09-26T07:56:26.848Z,100306.00
2022-09-26T07:59:03.838Z,100242.66
2022-09-26T08:02:04.275Z,100242.66
2022-09-26T08:05:01.309Z,100296.25
2022-09-26T08:07:42.459Z,100260.22
2022-09-26T08:10:23.425Z,100312.81
2022-09-26T08:13:08.793Z,100300.50
2022-09-26T08:16:06.128Z,100323.19
2022-09-26T08:18:37.969Z,100317.28
2022-09-26T08:21:06.238Z,100290.09
2022-09-26T08:23:34.242Z,100313.09
2022-09-26T08:26:21.280Z,100221.41
2022-09-26T08:28:51.704Z,100305.59
2022-09-26T08:31:19.650Z,100290.66
2022-09-26T08:33:47.784Z,100245.53
2022-09-26T08:36:35.185Z,100225.50
2022-09-26T08:39:33.516Z,100200.97
2022-09-26T08:42:36.378Z,100203.91
2022-09-26T08:45:55.786Z,100301.59
2022-09-26T08:49:10.231Z,100194.09
2022-09-26T08:51:45.380Z,100292.69
2022-09-26T08:54:19.914Z,100290.06
2022-09-26T08:56:50.902Z,100180.94
2022-09-26T08:59:46.768Z,100283.13
2022-09-26T09:02:47.303Z,100268.97
2022-09-26T09:05:52.194Z,100279.56
2022-09-26T09:08:46.491Z,100283.16
2022-09-26T09:11:59.318Z,100286.66
2022-09-26T09:15:23.644Z,100262.94
2022-09-26T09:18:30.399Z,100277.00
2022-09-26T09:21:12.367Z,100272.63
2022-09-26T09:24:07.492Z,100279.66
2022-09-26T09:29:56.753Z,100262.75
2022-09-26T09:32:51.725Z,100208.16
2022-09-26T09:35:46.934Z,100188.97
2022-09-26T09:38:49.218Z,100266.53
2022-09-26T09:41:47.720Z,100213.13
2022-09-26T09:44:36.390Z,100187.53
2022-09-26T09:47:29.229Z,100253.13
2022-09-26T09:50:31.425Z,100119.78
2022-09-26T09:53:32.650Z,100234.00
2022-09-26T09:55:59.691Z,100260.13
2022-09-26T09:58:45.110Z,100258.88
2022-09-26T10:01:40.201Z,100255.91
2022-09-26T10:04:53.284Z,100250.41
2022-09-26T10:07:33.785Z,100255.22
2022-09-26T10:10:37.581Z,100247.06
2022-09-26T10:13:45.325Z,100226.94
2022-09-26T10:17:25.239Z,100198.00
2022-09-26T10:20:35.183Z,100239.75
2022-09-26T10:23:03.301Z,100212.06
2022-09-26T10:25:32.103Z,100197.88
2022-09-26T10:28:01.157Z,100178.97
2022-09-26T10:30:48.752Z,100227.03
2022-09-26T10:33:29.087Z,100221.63
2022-09-26T10:36:11.459Z,100222.69
2022-09-26T10:39:16.495Z,100219.19
2022-09-26T10:41:47.499Z,100225.91
2022-09-26T10:44:23.496Z,100183.06
2022-09-26T10:47:08.725Z,100166.69
2022-09-26T10:50:07.116Z,100146.47
2022-09-26T10:53:14.108Z,100224.59
2022-09-26T10:55:46.876Z,100216.59
2022-09-26T10:58:18.239Z,100217.53
2022-09-26T11:01:07.378Z,100215.47
2022-09-26T11:04:00.014Z,100189.28
2022-09-26T11:06:55.264Z,100201.00
2022-09-26T11:10:15.267Z,100171.66
2022-09-26T11:13:19.337Z,100197.47
2022-09-26T11:16:08.881Z,100193.03
2022-09-26T11:18:47.561Z,100157.06
2022-09-26T11:21:41.370Z,100194.25
2022-09-26T11:25:11.371Z,100188.50
2022-09-26T11:28:54.010Z,100135.44
2022-09-26T11:31:47.199Z,100145.44
2022-09-26T11:34:31.105Z,100171.16
2022-09-26T11:37:11.242Z,100157.34
2022-09-26T11:40:13.753Z,100157.97
2022-09-26T11:43:00.467Z,100154.56
2022-09-26T11:46:05.053Z,100149.47
2022-09-26T11:49:45.319Z,100143.50
2022-09-26T11:53:04.780Z,100127.56
2022-09-26T11:55:51.343Z,100119.50
2022-09-26T11:58:59.921Z,100119.81
2022-09-26T12:02:04.322Z,100052.34
2022-09-26T12:05:16.919Z,100097.06
2022-09-26T12:08:08.237Z,100097.31
2022-09-26T12:10:50.401Z,100080.34
2022-09-26T12:13:47.234Z,100081.97
2022-09-26T12:16:22.148Z,100076.78
2022-09-26T12:19:16.146Z,100072.09
2022-09-26T12:22:33.333Z,100067.75
2022-09-26T12:26:02.359Z,100066.34
2022-09-26T12:29:28.311Z,100061.78
2022-09-26T12:32:46.974Z,100050.03
2022-09-26T12:35:18.937Z,100044.75
2022-09-26T12:38:08.784Z,100009.75
2022-09-26T12:41:02.458Z,100034.56
2022-09-26T12:43:44.905Z,100038.22
2022-09-26T12:46:56.424Z,99992.97
2022-09-26T12:50:04.527Z,100028.38
2022-09-26T12:53:32.330Z,100020.84
2022-09-26T12:59:17.606Z,100008.53
2022-09-26T13:02:21.380Z,99979.97
2022-09-26T13:05:15.606Z,99994.53
2022-09-26T13:07:57.471Z,99998.22
2022-09-26T13:10:59.386Z,99997.59
2022-09-26T13:14:09.756Z,99989.22
2022-09-26T13:16:50.887Z,99948.97
2022-09-26T13:19:35.055Z,99961.28
2022-09-26T13:22:41.358Z,99973.16
2022-09-26T13:25:26.272Z,99967.94
2022-09-26T13:28:05.297Z,99893.63
2022-09-26T13:30:36.261Z,99894.78
2022-09-26T13:33:41.467Z,99939.84
2022-09-26T13:36:44.775Z,99908.41
2022-09-26T13:39:48.364Z,99947.59
2022-09-26T13:43:03.048Z,99902.38
2022-09-26T13:46:07.442Z,99937.88
2022-09-26T13:49:20.401Z,99932.81
2022-09-26T13:52:49.359Z,99892.03
2022-09-26T13:55:30.406Z,99905.09
2022-09-26T13:58:03.212Z,99934.59
2022-09-26T14:00:30.469Z,99929.28
2022-09-26T14:03:15.698Z,99930.84
2022-09-26T14:05:43.675Z,99929.75
2022-09-26T14:08:57.371Z,99925.88
2022-09-26T14:11:43.805Z,99879.50
2022-09-26T14:14:18.245Z,99916.09
2022-09-26T14:16:47.254Z,99884.84
2022-09-26T14:19:39.362Z,99908.56
2022-09-26T14:22:32.401Z,99912.59
2022-09-26T14:25:45.658Z,99865.63
2022-09-26T14:28:33.387Z,99908.47
2022-09-26T14:31:24.852Z,99896.50
2022-09-26T14:34:25.424Z,99879.47
2022-09-26T14:36:55.933Z,99897.88
2022-09-26T14:39:53.144Z,99880.53
2022-09-26T14:42:43.652Z,99873.34
2022-09-26T14:45:31.404Z,99882.63
2022-09-26T14:48:49.460Z,99859.13
2022-09-26T14:51:54.410Z,99852.06
2022-09-26T14:54:55.426Z,99832.00
2022-09-26T14:57:56.410Z,99868.84
2022-09-26T15:00:43.365Z,99818.00
2022-09-26T15:03:33.417Z,99868.75
2022-09-26T15:06:14.542Z,99844.31
2022-09-26T15:11:53.444Z,99863.66
2022-09-26T15:14:40.939Z,99824.34
2022-09-26T15:17:16.379Z,99862.69
2022-09-26T15:19:50.915Z,99863.00
2022-09-26T15:22:41.420Z,99835.91
2022-09-26T15:25:46.477Z,99859.59
2022-09-26T15:28:27.207Z,99857.94
2022-09-26T15:31:24.949Z,99797.78
2022-09-26T15:33:54.614Z,99853.00
2022-09-26T15:36:43.430Z,99838.47
2022-09-26T15:39:33.214Z,99851.59
2022-09-26T15:42:31.709Z,99850.44
2022-09-26T15:45:56.597Z,99849.75
2022-09-26T15:48:50.681Z,99820.41
2022-09-26T15:51:46.434Z,99834.13
2022-09-26T15:54:47.534Z,99808.75
2022-09-26T15:57:48.453Z,99845.69
2022-09-26T16:00:35.223Z,99827.31
2022-09-26T16:03:26.476Z,99811.13
2022-09-26T16:05:54.764Z,99856.59
2022-09-26T16:08:29.220Z,99816.56
2022-09-26T16:10:59.618Z,99858.53
2022-09-26T16:13:36.524Z,99833.19
2022-09-26T16:16:15.120Z,99837.56
2022-09-26T16:18:53.408Z,99806.72
2022-09-26T16:21:44.483Z,99855.31
2022-09-26T16:24:46.462Z,99847.34
2022-09-26T16:27:33.454Z,99816.25
2022-09-26T16:30:04.937Z,99842.09
2022-09-26T16:32:32.321Z,99828.38
2022-09-26T16:35:17.518Z,99855.44
2022-09-26T16:37:44.448Z,99828.44
2022-09-26T16:40:18.455Z,99749.56
2022-09-26T16:42:46.356Z,99844.38
2022-09-26T16:45:33.517Z,99741.41
2022-09-26T16:48:56.488Z,99846.34
2022-09-26T16:52:37.479Z,99802.75
2022-09-26T16:55:39.527Z,99841.41
2022-09-26T16:58:40.507Z,99791.47
2022-09-26T17:01:40.190Z,99846.78
2022-09-26T17:04:32.702Z,99833.66
2022-09-26T17:07:15.292Z,99835.44
2022-09-26T17:09:44.003Z,99840.75
2022-09-26T17:12:18.399Z,99843.69
2022-09-26T17:14:49.742Z,99842.94
2022-09-26T17:17:37.588Z,99834.63
2022-09-26T17:20:38.582Z,99818.97
2022-09-26T17:23:41.412Z,99840.94
2022-09-26T17:26:23.863Z,99776.34
2022-09-26T17:28:53.458Z,99834.06
2022-09-26T17:31:20.785Z,99726.44
2022-09-26T17:34:08.524Z,99812.28
2022-09-26T17:36:49.768Z,99779.97
2022-09-26T17:39:22.168Z,99803.75
2022-09-26T17:41:50.061Z,99823.06
2022-09-26T17:44:19.745Z,99787.19
2022-09-26T17:46:52.339Z,99827.56
2022-09-26T17:49:51.519Z,99792.53
2022-09-26T17:52:33.876Z,99823.59
2022-09-26T17:55:06.125Z,99796.47
2022-09-26T17:57:38.248Z,99760.03
2022-09-26T18:00:11.201Z,99802.31
2022-09-26T18:02:43.827Z,99828.56
2022-09-26T18:05:38.150Z,99826.78
2022-09-26T18:08:13.562Z,99761.97
2022-09-26T18:10:46.528Z,99810.97
2022-09-26T18:13:15.751Z,99825.97
2022-09-26T18:15:42.785Z,99829.66
2022-09-26T18:18:34.540Z,99827.69
2022-09-26T18:21:35.541Z,99807.78
2022-09-26T18:24:39.535Z,99826.88
2022-09-26T18:27:20.062Z,99826.88
2022-09-26T18:30:07.564Z,99724.63
2022-09-26T18:33:02.544Z,99777.13
2022-09-26T18:36:03.541Z,99791.28
2022-09-26T18:38:35.524Z,99734.34
2022-09-26T18:41:25.558Z,99755.38
2022-09-26T18:44:10.482Z,99815.66
2022-09-26T18:46:37.807Z,99777.19
2022-09-26T18:49:06.413Z,99804.56
2022-09-26T18:51:33.583Z,99734.25
2022-09-26T18:54:01.762Z,99754.50
2022-09-26T18:57:06.584Z,99777.22
2022-09-26T18:59:47.327Z,99811.16
2022-09-26T19:02:27.295Z,99778.19
2022-09-26T19:04:56.952Z,99694.16
2022-09-26T19:07:24.843Z,99738.00
2022-09-26T19:09:52.145Z,99807.38
2022-09-26T19:12:19.176Z,99704.00
2022-09-26T19:15:06.553Z,99794.03
2022-09-26T19:18:07.585Z,99804.69
2022-09-26T19:21:08.607Z,99778.47
2022-09-26T19:23:49.745Z,99803.72
2022-09-26T19:26:45.581Z,99771.38
2022-09-26T19:29:41.596Z,99826.47
2022-09-26T19:32:21.885Z,99722.38
2022-09-26T19:35:05.609Z,99816.09
2022-09-26T19:38:06.615Z,99803.88
2022-09-26T19:41:07.674Z,99781.13
2022-09-26T19:43:48.154Z,99757.50
2022-09-26T19:46:40.647Z,99811.03
2022-09-26T19:49:23.329Z,99793.78
2022-09-26T19:51:50.209Z,99732.47
2022-09-26T19:54:37.589Z,99790.22
2022-09-26T19:57:20.651Z,99805.19
2022-09-26T19:59:48.795Z,99803.53
2022-09-26T20:02:18.464Z,99802.66
2022-09-26T20:04:45.866Z,99795.34
2022-09-26T20:07:16.102Z,99787.38
2022-09-26T20:10:04.622Z,99778.66
2022-09-26T20:13:05.649Z,99783.34
2022-09-26T20:15:47.846Z,99769.47
2022-09-26T20:18:21.172Z,99782.72
2022-09-26T20:21:10.612Z,99709.03
2022-09-26T20:24:12.737Z,99679.19
2022-09-26T20:26:53.789Z,99768.53
2022-09-26T20:29:20.988Z,99766.72
2022-09-26T20:31:48.016Z,99717.72
2022-09-26T20:34:17.097Z,99715.97
2022-09-26T20:36:51.694Z,99710.66
2022-09-26T20:39:25.388Z,99753.56
2022-09-26T20:42:12.633Z,99732.59
2022-09-26T20:44:53.281Z,99732.63
2022-09-26T20:47:43.668Z,99747.53
2022-09-26T20:50:24.447Z,99745.88
2022-09-26T20:52:51.273Z,99675.81
2022-09-26T20:55:43.249Z,99668.06
2022-09-26T20:58:24.617Z,99720.66
2022-09-26T21:00:53.274Z,99655.94
2022-09-26T21:03:25.206Z,99742.53
2022-09-26T21:05:52.400Z,99733.81
2022-09-26T21:08:26.669Z,99738.97
2022-09-26T21:11:13.651Z,99663.66
2022-09-26T21:14:14.739Z,99745.09
2022-09-26T21:16:55.263Z,99690.06
2022-09-26T21:19:24.662Z,99735.66
2022-09-26T21:22:24.643Z,99731.13
2022-09-26T21:25:30.646Z,99728.41
2022-09-26T21:28:28.351Z,99697.66
2022-09-26T21:31:19.736Z,99666.09
2022-09-26T21:34:00.477Z,99721.19
2022-09-26T21:36:35.089Z,99720.22
2022-09-26T21:39:02.535Z,99671.25
2022-09-26T21:41:29.872Z,99665.94
2022-09-26T21:44:03.857Z,99711.44
2022-09-26T21:46:50.670Z,99714.09
2022-09-26T21:49:51.672Z,99716.69
2022-09-26T21:52:40.625Z,99678.22
2022-09-26T21:55:12.281Z,99705.41
2022-09-26T21:57:43.066Z,99666.84
2022-09-26T22:00:12.394Z,99624.84
2022-09-26T22:02:41.885Z,99575.72
2022-09-26T22:05:10.233Z,99699.13
2022-09-26T22:07:37.819Z,99690.84
2022-09-26T22:10:06.234Z,99694.63
2022-09-26T22:12:34.580Z,99696.47
2022-09-26T22:15:21.689Z,99680.88
2022-09-26T22:18:02.257Z,99604.72
2022-09-26T22:20:49.686Z,99618.72
2022-09-26T22:23:51.663Z,99661.00
2022-09-26T22:26:41.232Z,99650.53
2022-09-26T22:29:08.156Z,99654.16
2022-09-26T22:31:35.067Z,99642.78
2022-09-26T22:34:02.096Z,99656.81
2022-09-26T22:36:29.008Z,99647.88
2022-09-26T22:38:55.913Z,99660.59
2022-09-26T22:41:42.706Z,99686.00
2022-09-26T22:44:43.720Z,99608.00
2022-09-26T22:47:44.676Z,99671.03
2022-09-26T22:50:25.581Z,99653.44
2022-09-26T22:52:52.603Z,99558.81
2022-09-26T22:55:19.759Z,99649.03
2022-09-26T22:57:51.014Z,99655.25
2022-09-26T23:00:17.946Z,99603.75
2022-09-26T23:02:45.005Z,99646.59
2022-09-26T23:05:31.726Z,99588.88
2022-09-26T23:08:12.460Z,99573.94
2022-09-26T23:11:04.716Z,99599.31
2022-09-26T23:14:06.693Z,99640.47
2022-09-26T23:16:47.266Z,99621.22
2022-09-26T23:19:15.011Z,99520.56
2022-09-26T23:22:02.734Z,99619.44
2022-09-26T23:24:43.379Z,99622.91
2022-09-26T23:27:10.364Z,99625.56
2022-09-26T23:29:37.792Z,99652.78
2022-09-26T23:32:24.721Z,99569.53
2022-09-26T23:35:06.087Z,99608.09
2022-09-26T23:37:33.030Z,99622.16
2022-09-26T23:40:00.059Z,99596.75
2022-09-26T23:42:27.003Z,99552.16
2022-09-26T23:45:13.703Z,99618.66
2022-09-26T23:48:14.702Z,99608.16
2022-09-26T23:50:58.851Z,99606.44
2022-09-26T23:53:26.205Z,99641.47
2022-09-26T23:55:53.494Z,99641.44
2022-09-26T23:58:20.491Z,99520.66
